Blue Star Paros — SVJH — position and weather

sailwx.info

Track history (hours):
 
Tides and Currents Weather Stations Pressure Air Temp Water Temp Dewpoint Dewpoint Depression Visibility Wind Speed Wind Dir Waves Ship Positions

Blue Star Paros

Last reported at 2018-Feb-21 19:30 UTC. Time now 2018-Feb-21 19:39 UTC.
Position N 37°13' E 024°55'.

Length 124 m; draft 5 m.

Type: Passenger vessel. MMSI: 239924000.

Date/timePositionNaut miles runAvg speedWind from/ knotsBaromVisibWave heightAir tempDewpointWater temp
2018-Feb-21 19:30N 37°13' E 024°55'6120.6
2018-Feb-21 16:32N 37°39' E 023°45'121.0
2018-Feb-21 16:30N 37°39' E 023°44'1020.7
2018-Feb-21 16:00N 37°48' E 023°38'917.0
2018-Feb-21 15:30N 37°57' E 023°38'0 0.1
2018-Feb-21 15:00N 37°57' E 023°38'0 0.0
2018-Feb-21 14:31N 37°57' E 023°38'0 0.0
2018-Feb-21 14:00N 37°57' E 023°38'0 0.0
2018-Feb-21 13:30N 37°57' E 023°38'2 3.2
2018-Feb-21 13:00N 37°56' E 023°37'1020.5
2018-Feb-21 12:31N 37°47' E 023°42'1020.6
2018-Feb-21 12:00N 37°39' E 023°51'4822.0
2018-Feb-21 09:51N 37°19' E 024°45'822.7
2018-Feb-21 09:30N 37°15' E 024°53'1122.3
2018-Feb-21 09:00N 37°08' E 025°04'4 6.1
2018-Feb-21 08:20N 37°05' E 025°08'1115.4
2018-Feb-21 07:38N 37°07' E 025°21'110.8
2018-Feb-21 07:30N 37°06' E 025°22'0 0.0
2018-Feb-21 07:00N 37°06' E 025°22'510.7
2018-Feb-21 06:30N 37°02' E 025°18'3 0.4
2018-Feb-20 23:04N 36°59' E 025°21'121.6
2018-Feb-20 23:00N 37°00' E 025°20'612.7
2018-Feb-20 22:30N 37°06' E 025°22'4 8.6
2018-Feb-20 22:00N 37°09' E 025°18'1018.1
2018-Feb-20 21:29N 37°05' E 025°08'0 1.0
2018-Feb-20 21:00N 37°05' E 025°08'1020.5
2018-Feb-20 20:30N 37°15' E 025°03'1121.8
2018-Feb-20 20:00N 37°25' E 024°59'2 3.5
2018-Feb-20 19:31N 37°26' E 024°57'816.9
2018-Feb-20 19:00N 37°31' E 024°49'5020.6
2018-Feb-20 16:35N 37°39' E 023°46'221.2
2018-Feb-20 16:30N 37°39' E 023°44'1021.1
2018-Feb-20 16:00N 37°48' E 023°38'917.1
2018-Feb-20 15:30N 37°57' E 023°38'0 0.0
2018-Feb-20 15:00N 37°57' E 023°38'0 0.0
2018-Feb-20 14:31N 37°57' E 023°38'0 0.0
2018-Feb-20 14:01N 37°57' E 023°38'0 0.0
2018-Feb-20 13:31N 37°57' E 023°38'1 2.2
2018-Feb-20 13:01N 37°56' E 023°37'1121.4
2018-Feb-20 12:31N 37°46' E 023°42'1121.2
2018-Feb-20 12:00N 37°38' E 023°51'4721.8
2018-Feb-20 09:50N 37°19' E 024°45'822.6
2018-Feb-20 09:30N 37°14' E 024°53'1122.2
2018-Feb-20 09:00N 37°08' E 025°04'4 6.9
2018-Feb-20 08:23N 37°05' E 025°08'616.8
2018-Feb-20 08:00N 37°10' E 025°14'715.0
2018-Feb-20 07:30N 37°06' E 025°22'0 0.7
2018-Feb-20 07:01N 37°07' E 025°22'1318.4
2018-Feb-20 06:18N 37°11' E 025°37'621.7
2018-Feb-20 06:00N 37°07' E 025°44'0 0.0
2018-Feb-19 22:16N 37°07' E 025°44'521.4
2018-Feb-19 22:00N 37°10' E 025°39'918.4
2018-Feb-19 21:31N 37°11' E 025°27'612.3
2018-Feb-19 21:01N 37°06' E 025°22'1117.4
2018-Feb-19 20:23N 37°07' E 025°09'2 5.6
2018-Feb-19 20:00N 37°05' E 025°08'1121.3
2018-Feb-19 19:30N 37°12' E 024°58'1121.8
2018-Feb-19 19:00N 37°18' E 024°47'5121.4
2018-Feb-19 16:37N 37°39' E 023°48'221.7
2018-Feb-19 16:30N 37°39' E 023°45'1121.3
2018-Feb-19 16:00N 37°48' E 023°38'917.2
2018-Feb-19 15:31N 37°57' E 023°38'0 0.0
2018-Feb-19 15:01N 37°57' E 023°38'0 0.0
2018-Feb-19 14:30N 37°57' E 023°38'0 0.0
2018-Feb-19 14:01N 37°57' E 023°38'0 0.0
2018-Feb-19 13:31N 37°57' E 023°38'1 2.2
2018-Feb-19 13:01N 37°56' E 023°37'1121.4
2018-Feb-19 12:31N 37°46' E 023°42'1021.0
2018-Feb-19 12:01N 37°39' E 023°51'4722.0
2018-Feb-19 09:53N 37°19' E 024°45'922.1
2018-Feb-19 09:29N 37°14' E 024°54'1122.0
2018-Feb-19 09:00N 37°08' E 025°04'4 6.7
2018-Feb-19 08:22N 37°05' E 025°09'514.5
2018-Feb-19 08:00N 37°09' E 025°13'816.5
2018-Feb-19 07:30N 37°06' E 025°22'0 0.0
2018-Feb-19 07:00N 37°06' E 025°22'4 7.3
2018-Feb-19 06:30N 37°04' E 025°19'5 0.7
2018-Feb-18 22:31N 36°59' E 025°21'022.6
2018-Feb-18 22:30N 36°59' E 025°20'714.1
2018-Feb-18 22:00N 37°06' E 025°22'612.7
2018-Feb-18 21:31N 37°10' E 025°16'714.4
2018-Feb-18 21:01N 37°05' E 025°09'611.6
2018-Feb-18 20:31N 37°10' E 025°05'1122.2
2018-Feb-18 20:00N 37°21' E 025°00'612.4
2018-Feb-18 19:29N 37°26' E 024°57'5819.3
2018-Feb-18 16:30N 37°39' E 023°46'1021.0
2018-Feb-18 16:01N 37°48' E 023°38'918.2
2018-Feb-18 15:30N 37°57' E 023°38'0 0.2
2018-Feb-18 15:00N 37°57' E 023°38'0 0.0
2018-Feb-18 14:30N 37°57' E 023°38'0 0.0
2018-Feb-18 14:00N 37°57' E 023°38'0 0.0
2018-Feb-18 13:30N 37°57' E 023°38'2 3.5
2018-Feb-18 13:00N 37°55' E 023°37'1122.3
2018-Feb-18 12:31N 37°45' E 023°43'1121.2
2018-Feb-18 12:01N 37°38' E 023°53'4621.2
2018-Feb-18 09:52N 37°19' E 024°45'822.3
2018-Feb-18 09:31N 37°15' E 024°53'1122.2
2018-Feb-18 09:00N 37°08' E 025°04'12 5.1
2018-Feb-18 06:38N 37°04' E 025°19'220.3
2018-Feb-18 06:31N 37°02' E 025°18'3 0.1
2018-Feb-16 22:57N 36°59' E 025°20'716.6
2018-Feb-16 22:31N 37°07' E 025°21'1 1.6
2018-Feb-16 22:00N 37°06' E 025°22'510.2
2018-Feb-16 21:31N 37°10' E 025°18'918.8
2018-Feb-16 21:00N 37°06' E 025°07'1 2.7
2018-Feb-16 20:29N 37°05' E 025°09'815.8
2018-Feb-16 20:01N 37°10' E 025°01'1121.0
2018-Feb-16 19:30N 37°16' E 024°51'5620.3
2018-Feb-16 16:45N 37°39' E 023°46'520.2
2018-Feb-16 16:30N 37°42' E 023°42'1121.5
2018-Feb-16 16:01N 37°52' E 023°37'5 9.6
2018-Feb-16 15:30N 37°57' E 023°38'0 0.0
2018-Feb-16 15:00N 37°57' E 023°38'0 0.0
2018-Feb-16 14:30N 37°57' E 023°38'0 0.0
2018-Feb-16 14:00N 37°57' E 023°38'0 0.0
2018-Feb-16 13:31N 37°57' E 023°38'3 6.3
2018-Feb-16 13:00N 37°54' E 023°38'1121.8
2018-Feb-16 12:30N 37°44' E 023°44'5420.8
2018-Feb-16 09:53N 37°19' E 024°45'822.2
2018-Feb-16 09:31N 37°14' E 024°54'1121.9
2018-Feb-16 09:01N 37°08' E 025°05'4 5.7
2018-Feb-16 08:21N 37°05' E 025°08'617.0
2018-Feb-16 08:00N 37°10' E 025°13'816.3
2018-Feb-16 07:30N 37°06' E 025°22'1 2.6
2018-Feb-16 07:00N 37°08' E 025°23'1218.5
2018-Feb-16 06:21N 37°11' E 025°38'7 1.0
2018-Feb-15 23:56N 37°07' E 025°44'1320.0
2018-Feb-15 23:18N 37°13' E 025°30'619.3
2018-Feb-15 23:00N 37°09' E 025°24'3 6.4
2018-Feb-15 22:30N 37°06' E 025°22'612.2
2018-Feb-15 22:01N 37°10' E 025°16'9 9.8
2018-Feb-15 21:08N 37°05' E 025°08'320.6
2018-Feb-15 21:00N 37°08' E 025°06'1121.3
2018-Feb-15 20:30N 37°18' E 025°02'910.5
2018-Feb-15 19:36N 37°26' E 024°57'115.2
2018-Feb-15 19:30N 37°27' E 024°58'918.1
2018-Feb-15 19:00N 37°31' E 024°47'4920.6
2018-Feb-15 16:37N 37°39' E 023°46'419.8
2018-Feb-15 16:24N 37°42' E 023°42'821.5
2018-Feb-15 16:01N 37°49' E 023°37'815.2
2018-Feb-15 15:30N 37°57' E 023°38'0 0.0
2018-Feb-15 15:00N 37°57' E 023°38'0 0.0
2018-Feb-15 14:30N 37°57' E 023°38'0 0.0
2018-Feb-15 14:00N 37°57' E 023°38'0 0.0
2018-Feb-15 13:30N 37°57' E 023°38'2 4.5
2018-Feb-15 13:00N 37°55' E 023°37'1121.9
2018-Feb-15 12:30N 37°45' E 023°43'1120.0
2018-Feb-15 11:58N 37°38' E 023°54'1221.7
2018-Feb-15 11:24N 37°34' E 024°09'3321.2
2018-Feb-15 09:51N 37°19' E 024°45'822.4
2018-Feb-15 09:31N 37°14' E 024°53'1122.3
2018-Feb-15 09:00N 37°08' E 025°05'4 6.2
2018-Feb-15 08:23N 37°05' E 025°08'616.9
2018-Feb-15 08:00N 37°10' E 025°14'815.3
2018-Feb-15 07:31N 37°06' E 025°22'2 4.4
2018-Feb-15 07:00N 37°08' E 025°24'1118.9
2018-Feb-15 06:24N 37°11' E 025°38'7 0.9
2018-Feb-14 23:10N 37°07' E 025°44'422.1
2018-Feb-14 23:00N 37°09' E 025°41'1019.6
2018-Feb-14 22:30N 37°12' E 025°29'815.9
2018-Feb-14 22:00N 37°06' E 025°22'0 0.1
2018-Feb-14 21:30N 37°06' E 025°22'815.6
2018-Feb-14 21:00N 37°10' E 025°14'6 7.1
2018-Feb-14 20:06N 37°05' E 025°08'219.9
2018-Feb-14 20:00N 37°07' E 025°06'1121.2
2018-Feb-14 19:30N 37°12' E 024°55'6420.6
2018-Feb-14 16:24N 37°40' E 023°43'921.6
2018-Feb-14 16:00N 37°48' E 023°38'917.4
2018-Feb-14 15:30N 37°57' E 023°38'0 0.1
2018-Feb-14 15:00N 37°57' E 023°38'0 0.0
2018-Feb-14 14:30N 37°57' E 023°38'0 0.0
2018-Feb-14 14:00N 37°57' E 023°38'0 0.0
2018-Feb-14 13:30N 37°57' E 023°38'714.1
2018-Feb-14 13:00N 37°50' E 023°40'1121.4
2018-Feb-14 12:29N 37°40' E 023°47'5120.6
2018-Feb-14 10:01N 37°19' E 024°45'023.2
2018-Feb-14 10:00N 37°19' E 024°45'1020.6
2018-Feb-14 09:30N 37°13' E 024°56'1320.0
2018-Feb-14 08:52N 37°05' E 025°09'1 2.7
2018-Feb-14 08:30N 37°05' E 025°07'917.8
2018-Feb-14 08:00N 37°10' E 025°17'611.6
2018-Feb-14 07:30N 37°06' E 025°22'0 0.9
2018-Feb-14 07:00N 37°06' E 025°22'7 1.0
2018-Feb-13 23:36N 36°59' E 025°21'221.1
2018-Feb-13 23:31N 37°01' E 025°19'611.7
2018-Feb-13 23:00N 37°06' E 025°22'2 4.7
2018-Feb-13 22:30N 37°08' E 025°21'1019.2
2018-Feb-13 22:00N 37°07' E 025°08'2 2.2
2018-Feb-13 21:10N 37°05' E 025°08'318.5
2018-Feb-13 21:01N 37°08' E 025°06'1020.8
2018-Feb-13 20:31N 37°17' E 025°02'1018.0
2018-Feb-13 19:57N 37°26' E 024°57'1 3.0
2018-Feb-13 19:31N 37°27' E 024°58'918.3
2018-Feb-13 19:00N 37°31' E 024°47'4920.7
2018-Feb-13 16:39N 37°39' E 023°46'619.8
2018-Feb-13 16:22N 37°43' E 023°41'721.1
2018-Feb-13 16:00N 37°50' E 023°37'714.4
2018-Feb-13 15:30N 37°57' E 023°38'0 0.0
2018-Feb-13 14:59N 37°57' E 023°38'0 0.0
2018-Feb-13 14:30N 37°57' E 023°38'0 0.0
2018-Feb-13 14:00N 37°57' E 023°38'0 0.0
2018-Feb-13 13:30N 37°57' E 023°38'1 1.3
2018-Feb-13 13:00N 37°56' E 023°38'1019.4
2018-Feb-13 12:30N 37°47' E 023°42'1121.3
2018-Feb-13 12:00N 37°39' E 023°51'4822.2
2018-Feb-13 09:51N 37°19' E 024°45'822.7
2018-Feb-13 09:31N 37°14' E 024°53'1122.4
2018-Feb-13 09:01N 37°08' E 025°04'4 6.1
2018-Feb-13 08:20N 37°05' E 025°08'516.8
2018-Feb-13 08:01N 37°09' E 025°13'816.4
2018-Feb-13 07:31N 37°06' E 025°22'1611.1
2018-Feb-13 06:06N 37°08' E 025°42'2 0.3
2018-Feb-12 22:59N 37°07' E 025°44'1021.7
2018-Feb-12 22:30N 37°13' E 025°33'1020.9
2018-Feb-12 22:00N 37°07' E 025°22'1 1.9
2018-Feb-12 21:30N 37°06' E 025°22'815.5
2018-Feb-12 21:00N 37°10' E 025°14'6 7.1
2018-Feb-12 20:08N 37°05' E 025°08'219.6
2018-Feb-12 20:00N 37°07' E 025°06'1121.6
2018-Feb-12 19:30N 37°13' E 024°55'6021.1
2018-Feb-12 16:38N 37°39' E 023°46'321.3
2018-Feb-12 16:30N 37°40' E 023°43'1121.6
2018-Feb-12 16:00N 37°50' E 023°37'714.6
2018-Feb-12 15:30N 37°57' E 023°38'0 0.0
2018-Feb-12 15:00N 37°57' E 023°38'0 0.0
2018-Feb-12 14:31N 37°57' E 023°38'0 0.0
2018-Feb-12 14:01N 37°57' E 023°38'0 0.0
2018-Feb-12 13:31N 37°57' E 023°38'2 3.3
2018-Feb-12 13:01N 37°56' E 023°37'1020.9
2018-Feb-12 12:30N 37°46' E 023°42'1020.9
2018-Feb-12 12:00N 37°39' E 023°52'4721.8
2018-Feb-12 09:51N 37°19' E 024°45'822.6
2018-Feb-12 09:30N 37°14' E 024°53'1122.0
2018-Feb-12 09:00N 37°08' E 025°04'4 6.4
2018-Feb-12 08:21N 37°05' E 025°08'616.7
2018-Feb-12 08:00N 37°10' E 025°13'815.8
2018-Feb-12 07:30N 37°06' E 025°22'0 0.0
2018-Feb-12 07:01N 37°06' E 025°22'510.3
2018-Feb-12 06:31N 37°02' E 025°19'3 0.5
2018-Feb-11 22:48N 36°59' E 025°21'620.7
2018-Feb-11 22:30N 37°05' E 025°18'3 6.5
2018-Feb-11 22:00N 37°06' E 025°22'917.7
2018-Feb-11 21:31N 37°09' E 025°12'5 7.5
2018-Feb-11 20:52N 37°05' E 025°08'721.1
2018-Feb-11 20:30N 37°12' E 025°05'1121.9
2018-Feb-11 20:00N 37°22' E 024°60'  
Track history (hours):
 
Tides and Currents Weather Stations Pressure Air Temp Water Temp Dewpoint Dewpoint Depression Visibility Wind Speed Wind Dir Waves Ship Positions

Blue Star Paros

Last reported at 2018-Feb-21 19:30 UTC. Time now 2018-Feb-21 19:39 UTC.
Position N 37°13' E 024°55'.

Length 124 m; draft 5 m.

Type: Passenger vessel. MMSI: 239924000.

Date/timePositionNaut miles runAvg speedWind from/ knotsBaromVisibWave heightAir tempDewpointWater temp
2018-Feb-21 19:30N 37°13' E 024°55'6120.6
2018-Feb-21 16:32N 37°39' E 023°45'121.0
2018-Feb-21 16:30N 37°39' E 023°44'1020.7
2018-Feb-21 16:00N 37°48' E 023°38'917.0
2018-Feb-21 15:30N 37°57' E 023°38'0 0.1
2018-Feb-21 15:00N 37°57' E 023°38'0 0.0
2018-Feb-21 14:31N 37°57' E 023°38'0 0.0
2018-Feb-21 14:00N 37°57' E 023°38'0 0.0
2018-Feb-21 13:30N 37°57' E 023°38'2 3.2
2018-Feb-21 13:00N 37°56' E 023°37'1020.5
2018-Feb-21 12:31N 37°47' E 023°42'1020.6
2018-Feb-21 12:00N 37°39' E 023°51'4822.0
2018-Feb-21 09:51N 37°19' E 024°45'822.7
2018-Feb-21 09:30N 37°15' E 024°53'1122.3
2018-Feb-21 09:00N 37°08' E 025°04'4 6.1
2018-Feb-21 08:20N 37°05' E 025°08'1115.4
2018-Feb-21 07:38N 37°07' E 025°21'110.8
2018-Feb-21 07:30N 37°06' E 025°22'0 0.0
2018-Feb-21 07:00N 37°06' E 025°22'510.7
2018-Feb-21 06:30N 37°02' E 025°18'3 0.4
2018-Feb-20 23:04N 36°59' E 025°21'121.6
2018-Feb-20 23:00N 37°00' E 025°20'612.7
2018-Feb-20 22:30N 37°06' E 025°22'4 8.6
2018-Feb-20 22:00N 37°09' E 025°18'1018.1
2018-Feb-20 21:29N 37°05' E 025°08'0 1.0
2018-Feb-20 21:00N 37°05' E 025°08'1020.5
2018-Feb-20 20:30N 37°15' E 025°03'1121.8
2018-Feb-20 20:00N 37°25' E 024°59'2 3.5
2018-Feb-20 19:31N 37°26' E 024°57'816.9
2018-Feb-20 19:00N 37°31' E 024°49'5020.6
2018-Feb-20 16:35N 37°39' E 023°46'221.2
2018-Feb-20 16:30N 37°39' E 023°44'1021.1
2018-Feb-20 16:00N 37°48' E 023°38'917.1
2018-Feb-20 15:30N 37°57' E 023°38'0 0.0
2018-Feb-20 15:00N 37°57' E 023°38'0 0.0
2018-Feb-20 14:31N 37°57' E 023°38'0 0.0
2018-Feb-20 14:01N 37°57' E 023°38'0 0.0
2018-Feb-20 13:31N 37°57' E 023°38'1 2.2
2018-Feb-20 13:01N 37°56' E 023°37'1121.4
2018-Feb-20 12:31N 37°46' E 023°42'1121.2
2018-Feb-20 12:00N 37°38' E 023°51'4721.8
2018-Feb-20 09:50N 37°19' E 024°45'822.6
2018-Feb-20 09:30N 37°14' E 024°53'1122.2
2018-Feb-20 09:00N 37°08' E 025°04'4 6.9
2018-Feb-20 08:23N 37°05' E 025°08'616.8
2018-Feb-20 08:00N 37°10' E 025°14'715.0
2018-Feb-20 07:30N 37°06' E 025°22'0 0.7
2018-Feb-20 07:01N 37°07' E 025°22'1318.4
2018-Feb-20 06:18N 37°11' E 025°37'621.7
2018-Feb-20 06:00N 37°07' E 025°44'0 0.0
2018-Feb-19 22:16N 37°07' E 025°44'521.4
2018-Feb-19 22:00N 37°10' E 025°39'918.4
2018-Feb-19 21:31N 37°11' E 025°27'612.3
2018-Feb-19 21:01N 37°06' E 025°22'1117.4
2018-Feb-19 20:23N 37°07' E 025°09'2 5.6
2018-Feb-19 20:00N 37°05' E 025°08'1121.3
2018-Feb-19 19:30N 37°12' E 024°58'1121.8
2018-Feb-19 19:00N 37°18' E 024°47'5121.4
2018-Feb-19 16:37N 37°39' E 023°48'221.7
2018-Feb-19 16:30N 37°39' E 023°45'1121.3
2018-Feb-19 16:00N 37°48' E 023°38'917.2
2018-Feb-19 15:31N 37°57' E 023°38'0 0.0
2018-Feb-19 15:01N 37°57' E 023°38'0 0.0
2018-Feb-19 14:30N 37°57' E 023°38'0 0.0
2018-Feb-19 14:01N 37°57' E 023°38'0 0.0
2018-Feb-19 13:31N 37°57' E 023°38'1 2.2
2018-Feb-19 13:01N 37°56' E 023°37'1121.4
2018-Feb-19 12:31N 37°46' E 023°42'1021.0
2018-Feb-19 12:01N 37°39' E 023°51'4722.0
2018-Feb-19 09:53N 37°19' E 024°45'922.1
2018-Feb-19 09:29N 37°14' E 024°54'1122.0
2018-Feb-19 09:00N 37°08' E 025°04'4 6.7
2018-Feb-19 08:22N 37°05' E 025°09'514.5
2018-Feb-19 08:00N 37°09' E 025°13'816.5
2018-Feb-19 07:30N 37°06' E 025°22'0 0.0
2018-Feb-19 07:00N 37°06' E 025°22'4 7.3
2018-Feb-19 06:30N 37°04' E 025°19'5 0.7
2018-Feb-18 22:31N 36°59' E 025°21'022.6
2018-Feb-18 22:30N 36°59' E 025°20'714.1
2018-Feb-18 22:00N 37°06' E 025°22'612.7
2018-Feb-18 21:31N 37°10' E 025°16'714.4
2018-Feb-18 21:01N 37°05' E 025°09'611.6
2018-Feb-18 20:31N 37°10' E 025°05'1122.2
2018-Feb-18 20:00N 37°21' E 025°00'612.4
2018-Feb-18 19:29N 37°26' E 024°57'5819.3
2018-Feb-18 16:30N 37°39' E 023°46'1021.0
2018-Feb-18 16:01N 37°48' E 023°38'918.2
2018-Feb-18 15:30N 37°57' E 023°38'0 0.2
2018-Feb-18 15:00N 37°57' E 023°38'0 0.0
2018-Feb-18 14:30N 37°57' E 023°38'0 0.0
2018-Feb-18 14:00N 37°57' E 023°38'0 0.0
2018-Feb-18 13:30N 37°57' E 023°38'2 3.5
2018-Feb-18 13:00N 37°55' E 023°37'1122.3
2018-Feb-18 12:31N 37°45' E 023°43'1121.2
2018-Feb-18 12:01N 37°38' E 023°53'4621.2
2018-Feb-18 09:52N 37°19' E 024°45'822.3
2018-Feb-18 09:31N 37°15' E 024°53'1122.2
2018-Feb-18 09:00N 37°08' E 025°04'12 5.1
2018-Feb-18 06:38N 37°04' E 025°19'220.3
2018-Feb-18 06:31N 37°02' E 025°18'3 0.1
2018-Feb-16 22:57N 36°59' E 025°20'716.6
2018-Feb-16 22:31N 37°07' E 025°21'1 1.6
2018-Feb-16 22:00N 37°06' E 025°22'510.2
2018-Feb-16 21:31N 37°10' E 025°18'918.8
2018-Feb-16 21:00N 37°06' E 025°07'1 2.7
2018-Feb-16 20:29N 37°05' E 025°09'815.8
2018-Feb-16 20:01N 37°10' E 025°01'1121.0
2018-Feb-16 19:30N 37°16' E 024°51'5620.3
2018-Feb-16 16:45N 37°39' E 023°46'520.2
2018-Feb-16 16:30N 37°42' E 023°42'1121.5
2018-Feb-16 16:01N 37°52' E 023°37'5 9.6
2018-Feb-16 15:30N 37°57' E 023°38'0 0.0
2018-Feb-16 15:00N 37°57' E 023°38'0 0.0
2018-Feb-16 14:30N 37°57' E 023°38'0 0.0
2018-Feb-16 14:00N 37°57' E 023°38'0 0.0
2018-Feb-16 13:31N 37°57' E 023°38'3 6.3
2018-Feb-16 13:00N 37°54' E 023°38'1121.8
2018-Feb-16 12:30N 37°44' E 023°44'5420.8
2018-Feb-16 09:53N 37°19' E 024°45'822.2
2018-Feb-16 09:31N 37°14' E 024°54'1121.9
2018-Feb-16 09:01N 37°08' E 025°05'4 5.7
2018-Feb-16 08:21N 37°05' E 025°08'617.0
2018-Feb-16 08:00N 37°10' E 025°13'816.3
2018-Feb-16 07:30N 37°06' E 025°22'1 2.6
2018-Feb-16 07:00N 37°08' E 025°23'1218.5
2018-Feb-16 06:21N 37°11' E 025°38'7 1.0
2018-Feb-15 23:56N 37°07' E 025°44'1320.0
2018-Feb-15 23:18N 37°13' E 025°30'619.3
2018-Feb-15 23:00N 37°09' E 025°24'3 6.4
2018-Feb-15 22:30N 37°06' E 025°22'612.2
2018-Feb-15 22:01N 37°10' E 025°16'9 9.8
2018-Feb-15 21:08N 37°05' E 025°08'320.6
2018-Feb-15 21:00N 37°08' E 025°06'1121.3
2018-Feb-15 20:30N 37°18' E 025°02'910.5
2018-Feb-15 19:36N 37°26' E 024°57'115.2
2018-Feb-15 19:30N 37°27' E 024°58'918.1
2018-Feb-15 19:00N 37°31' E 024°47'4920.6
2018-Feb-15 16:37N 37°39' E 023°46'419.8
2018-Feb-15 16:24N 37°42' E 023°42'821.5
2018-Feb-15 16:01N 37°49' E 023°37'815.2
2018-Feb-15 15:30N 37°57' E 023°38'0 0.0
2018-Feb-15 15:00N 37°57' E 023°38'0 0.0
2018-Feb-15 14:30N 37°57' E 023°38'0 0.0
2018-Feb-15 14:00N 37°57' E 023°38'0 0.0
2018-Feb-15 13:30N 37°57' E 023°38'2 4.5
2018-Feb-15 13:00N 37°55' E 023°37'1121.9
2018-Feb-15 12:30N 37°45' E 023°43'1120.0
2018-Feb-15 11:58N 37°38' E 023°54'1221.7
2018-Feb-15 11:24N 37°34' E 024°09'3321.2
2018-Feb-15 09:51N 37°19' E 024°45'822.4
2018-Feb-15 09:31N 37°14' E 024°53'1122.3
2018-Feb-15 09:00N 37°08' E 025°05'4 6.2
2018-Feb-15 08:23N 37°05' E 025°08'616.9
2018-Feb-15 08:00N 37°10' E 025°14'815.3
2018-Feb-15 07:31N 37°06' E 025°22'2 4.4
2018-Feb-15 07:00N 37°08' E 025°24'1118.9
2018-Feb-15 06:24N 37°11' E 025°38'7 0.9
2018-Feb-14 23:10N 37°07' E 025°44'422.1
2018-Feb-14 23:00N 37°09' E 025°41'1019.6
2018-Feb-14 22:30N 37°12' E 025°29'815.9
2018-Feb-14 22:00N 37°06' E 025°22'0 0.1
2018-Feb-14 21:30N 37°06' E 025°22'815.6
2018-Feb-14 21:00N 37°10' E 025°14'6 7.1
2018-Feb-14 20:06N 37°05' E 025°08'219.9
2018-Feb-14 20:00N 37°07' E 025°06'1121.2
2018-Feb-14 19:30N 37°12' E 024°55'6420.6
2018-Feb-14 16:24N 37°40' E 023°43'921.6
2018-Feb-14 16:00N 37°48' E 023°38'917.4
2018-Feb-14 15:30N 37°57' E 023°38'0 0.1
2018-Feb-14 15:00N 37°57' E 023°38'0 0.0
2018-Feb-14 14:30N 37°57' E 023°38'0 0.0
2018-Feb-14 14:00N 37°57' E 023°38'0 0.0
2018-Feb-14 13:30N 37°57' E 023°38'714.1
2018-Feb-14 13:00N 37°50' E 023°40'1121.4
2018-Feb-14 12:29N 37°40' E 023°47'5120.6
2018-Feb-14 10:01N 37°19' E 024°45'023.2
2018-Feb-14 10:00N 37°19' E 024°45'1020.6
2018-Feb-14 09:30N 37°13' E 024°56'1320.0
2018-Feb-14 08:52N 37°05' E 025°09'1 2.7
2018-Feb-14 08:30N 37°05' E 025°07'917.8
2018-Feb-14 08:00N 37°10' E 025°17'611.6
2018-Feb-14 07:30N 37°06' E 025°22'0 0.9
2018-Feb-14 07:00N 37°06' E 025°22'7 1.0
2018-Feb-13 23:36N 36°59' E 025°21'221.1
2018-Feb-13 23:31N 37°01' E 025°19'611.7
2018-Feb-13 23:00N 37°06' E 025°22'2 4.7
2018-Feb-13 22:30N 37°08' E 025°21'1019.2
2018-Feb-13 22:00N 37°07' E 025°08'2 2.2
2018-Feb-13 21:10N 37°05' E 025°08'318.5
2018-Feb-13 21:01N 37°08' E 025°06'1020.8
2018-Feb-13 20:31N 37°17' E 025°02'1018.0
2018-Feb-13 19:57N 37°26' E 024°57'1 3.0
2018-Feb-13 19:31N 37°27' E 024°58'918.3
2018-Feb-13 19:00N 37°31' E 024°47'4920.7
2018-Feb-13 16:39N 37°39' E 023°46'619.8
2018-Feb-13 16:22N 37°43' E 023°41'721.1
2018-Feb-13 16:00N 37°50' E 023°37'714.4
2018-Feb-13 15:30N 37°57' E 023°38'0 0.0
2018-Feb-13 14:59N 37°57' E 023°38'0 0.0
2018-Feb-13 14:30N 37°57' E 023°38'0 0.0
2018-Feb-13 14:00N 37°57' E 023°38'0 0.0
2018-Feb-13 13:30N 37°57' E 023°38'1 1.3
2018-Feb-13 13:00N 37°56' E 023°38'1019.4
2018-Feb-13 12:30N 37°47' E 023°42'1121.3
2018-Feb-13 12:00N 37°39' E 023°51'4822.2
2018-Feb-13 09:51N 37°19' E 024°45'822.7
2018-Feb-13 09:31N 37°14' E 024°53'1122.4
2018-Feb-13 09:01N 37°08' E 025°04'4 6.1
2018-Feb-13 08:20N 37°05' E 025°08'516.8
2018-Feb-13 08:01N 37°09' E 025°13'816.4
2018-Feb-13 07:31N 37°06' E 025°22'1611.1
2018-Feb-13 06:06N 37°08' E 025°42'2 0.3
2018-Feb-12 22:59N 37°07' E 025°44'1021.7
2018-Feb-12 22:30N 37°13' E 025°33'1020.9
2018-Feb-12 22:00N 37°07' E 025°22'1 1.9
2018-Feb-12 21:30N 37°06' E 025°22'815.5
2018-Feb-12 21:00N 37°10' E 025°14'6 7.1
2018-Feb-12 20:08N 37°05' E 025°08'219.6
2018-Feb-12 20:00N 37°07' E 025°06'1121.6
2018-Feb-12 19:30N 37°13' E 024°55'6021.1
2018-Feb-12 16:38N 37°39' E 023°46'321.3
2018-Feb-12 16:30N 37°40' E 023°43'1121.6
2018-Feb-12 16:00N 37°50' E 023°37'714.6
2018-Feb-12 15:30N 37°57' E 023°38'0 0.0
2018-Feb-12 15:00N 37°57' E 023°38'0 0.0
2018-Feb-12 14:31N 37°57' E 023°38'0 0.0
2018-Feb-12 14:01N 37°57' E 023°38'0 0.0
2018-Feb-12 13:31N 37°57' E 023°38'2 3.3
2018-Feb-12 13:01N 37°56' E 023°37'1020.9
2018-Feb-12 12:30N 37°46' E 023°42'1020.9
2018-Feb-12 12:00N 37°39' E 023°52'4721.8
2018-Feb-12 09:51N 37°19' E 024°45'822.6
2018-Feb-12 09:30N 37°14' E 024°53'1122.0
2018-Feb-12 09:00N 37°08' E 025°04'4 6.4
2018-Feb-12 08:21N 37°05' E 025°08'616.7
2018-Feb-12 08:00N 37°10' E 025°13'815.8
2018-Feb-12 07:30N 37°06' E 025°22'0 0.0
2018-Feb-12 07:01N 37°06' E 025°22'510.3
2018-Feb-12 06:31N 37°02' E 025°19'3 0.5
2018-Feb-11 22:48N 36°59' E 025°21'620.7
2018-Feb-11 22:30N 37°05' E 025°18'3 6.5
2018-Feb-11 22:00N 37°06' E 025°22'917.7
2018-Feb-11 21:31N 37°09' E 025°12'5 7.5
2018-Feb-11 20:52N 37°05' E 025°08'721.1
2018-Feb-11 20:30N 37°12' E 025°05'1121.9
2018-Feb-11 20:00N 37°22' E 024°60'  

Dump ship's entire track history